Terminal Aerodrome Forecast
Issued by NWS

Home | Current Version | Previous Version | Text Only | Print | Product List | Glossary On
Versions: 1 2 3 4 5 6 7 8 9 10 11 12 13 14 15 16 17 18 19 20 21 22 23 24 25 26 27 28 29 30 31 32 33 34 35 36 37 38 39 40 41 42 43 44 45 46 47 48 49 50
000
FTUS42 KMFL 271226 AAA
TAFFXE
TAF AMD
KFXE 271226Z 2712/2812 14015G25KT P6SM SHRA SCT012 BKN025 BKN050
      TEMPO 2712/2715 3SM RA BKN015
     FM271600 18020G35KT P6SM SHRA BKN030 OVC050
     FM280000 15015G25KT P6SM VCSH SCT020 BKN035 OVC040=

USA.gov is the U.S. government's official web portal to all federal, state and local government web resources and services.